Martin, ND (58758)

8:27 AM CST on December 07, 2016 (GMT -0600)
Rugby Municipal | | Change Station
Active Advisory: Winter Weather Advisory

Elev 1549 ft 48.39 °N, 100.02 °W | Updated 12 minutes ago

Mist
Mist
5 °F
Feels Like -19 °F
N
30
Wind Variable Wind from WNW
Gusts 36 mph

Today
High -- | Low -- °F
--% Chance of Precip.
Yesterday
High -- | Low -- °F
Precip. -- in
Pressure 30.05 in
Visibility 1.2 miles
Clouds
Windchill -19 °F
Dew Point 1 °F
Humidity 85%
Rainfall 0.00 in
Snow Depth Not available.
8:16 AM 4:48 PM
First Quarter, 53% visible
METAR KRUG 071415Z AUTO 30026G31KT 1 1/4SM BR M15/M17 A3005 RMK AO2
Pressure 30.05 in
Visibility 1.2 miles
Clouds
Windchill -19 °F
Dew Point 1 °F
Humidity 85%
Rainfall 0.00 in
Snow Depth Not available.
8:16 AM 4:48 PM
First Quarter, 53% visible
METAR KRUG 071415Z AUTO 30026G31KT 1 1/4SM BR M15/M17 A3005 RMK AO2

10-Day Weather Forecast

Almanac

Astronomy

Dec. 07, 2016 Rise Set
Actual Time
Civil Twilight
Nautical Twilight
Astronomical Twilight
Moon
Length of Visible Light
Length of Day
Tomorrow will be .
, % of the Moon is Illuminated

Today's Extremes

State Highs State Lows

Community

WunderPhotos

Upload Photos

1,956,116 photos uploaded!

WunderBlog® & News

Nearby

Air Quality

  Air Quality AQ Index Pollutant
Not available.

Snow Depth

Station Depth Elevation

Earthquake Activity

City Distance Mag. Time & Date
Minimum magnitude displayed is 2.5.

Coastal Water Temperatures

Place Temperature

Stations

Nearby Weather Stations

Station Location Temp. Windchill Dew Point Humidity Wind Precip. Elev Updated Type
                   

Watches & Warnings

Winter Weather Advisory
Issued: 6:19 AM CST Dec. 7, 2016 – National Weather Service

... Winter Weather Advisory remains in effect until 6 PM CST this
evening...
... Blizzard Warning has expired...

* timing... through 6 PM this evening.

* Winds/visibility... gusts to 45 mph with visibilities to one half
mile in blowing and drifting snow can be expected during the
day. Visibilities will be worst in open areas.

* Impacts... dangerous... if not impossible travel.

* Wind chills... to 20 below zero.

Precautionary/preparedness actions...

A Winter Weather Advisory for blowing snow means that
visibilities will be limited due to strong winds blowing snow
around. Use caution when traveling... especially in open areas.